sensor_id;sensor_type;location;lat;lon;timestamp;pressure;altitude;pressure_sealevel;temperature;humidity
62725;BME280;49026;52.600;4.694;2024-02-26T00:01:44;100133.81;;;4.52;100.00
62725;BME280;49026;52.600;4.694;2024-02-26T00:04:10;100140.78;;;4.52;100.00
62725;BME280;49026;52.600;4.694;2024-02-26T00:06:38;100133.03;;;4.49;100.00
62725;BME280;49026;52.600;4.694;2024-02-26T00:09:06;100152.97;;;4.50;100.00
62725;BME280;49026;52.600;4.694;2024-02-26T00:11:34;100158.19;;;4.50;100.00
62725;BME280;49026;52.600;4.694;2024-02-26T00:14:00;100158.19;;;4.50;100.00
62725;BME280;49026;52.600;4.694;2024-02-26T00:16:25;100152.09;;;4.49;100.00
62725;BME280;49026;52.600;4.694;2024-02-26T00:18:53;100165.13;;;4.49;100.00
62725;BME280;49026;52.600;4.694;2024-02-26T00:21:18;100170.47;;;4.44;100.00
62725;BME280;49026;52.600;4.694;2024-02-26T00:23:46;100166.19;;;4.42;100.00
62725;BME280;49026;52.600;4.694;2024-02-26T00:26:11;100170.53;;;4.41;100.00
62725;BME280;49026;52.600;4.694;2024-02-26T00:28:37;100165.28;;;4.43;100.00
62725;BME280;49026;52.600;4.694;2024-02-26T00:31:02;100174.81;;;4.42;100.00
62725;BME280;49026;52.600;4.694;2024-02-26T00:33:28;100172.31;;;4.39;100.00
62725;BME280;49026;52.600;4.694;2024-02-26T00:35:53;100174.06;;;4.39;100.00
62725;BME280;49026;52.600;4.694;2024-02-26T00:38:18;100179.38;;;4.34;100.00
62725;BME280;49026;52.600;4.694;2024-02-26T00:40:44;100183.75;;;4.32;100.00
62725;BME280;49026;52.600;4.694;2024-02-26T00:43:09;100186.28;;;4.35;100.00
62725;BME280;49026;52.600;4.694;2024-02-26T00:45:36;100188.88;;;4.35;100.00
62725;BME280;49026;52.600;4.694;2024-02-26T00:48:04;100182.06;;;4.31;100.00
62725;BME280;49026;52.600;4.694;2024-02-26T00:50:31;100180.38;;;4.29;100.00
62725;BME280;49026;52.600;4.694;2024-02-26T00:52:56;100182.97;;;4.29;100.00
62725;BME280;49026;52.600;4.694;2024-02-26T00:55:24;100186.47;;;4.27;100.00
62725;BME280;49026;52.600;4.694;2024-02-26T00:57:49;100189.94;;;4.28;100.00
62725;BME280;49026;52.600;4.694;2024-02-26T01:00:15;100188.22;;;4.27;100.00
62725;BME280;49026;52.600;4.694;2024-02-26T01:02:40;100189.13;;;4.26;100.00
62725;BME280;49026;52.600;4.694;2024-02-26T01:05:07;100183.97;;;4.24;100.00
62725;BME280;49026;52.600;4.694;2024-02-26T01:07:34;100188.25;;;4.25;100.00
62725;BME280;49026;52.600;4.694;2024-02-26T01:10:01;100191.78;;;4.24;100.00
62725;BME280;49026;52.600;4.694;2024-02-26T01:12:27;100185.69;;;4.24;100.00
62725;BME280;49026;52.600;4.694;2024-02-26T01:14:52;100189.25;;;4.21;100.00
62725;BME280;49026;52.600;4.694;2024-02-26T01:17:17;100191.91;;;4.18;100.00
62725;BME280;49026;52.600;4.694;2024-02-26T01:19:43;100193.66;;;4.18;100.00
62725;BME280;49026;52.600;4.694;2024-02-26T01:22:09;100194.53;;;4.17;100.00
62725;BME280;49026;52.600;4.694;2024-02-26T01:24:36;100191.97;;;4.15;100.00
62725;BME280;49026;52.600;4.694;2024-02-26T01:27:02;100198.97;;;4.13;100.00
62725;BME280;49026;52.600;4.694;2024-02-26T01:29:27;100197.22;;;4.14;100.00
62725;BME280;49026;52.600;4.694;2024-02-26T01:31:52;100200.72;;;4.13;100.00
62725;BME280;49026;52.600;4.694;2024-02-26T01:34:18;100196.38;;;4.13;100.00
62725;BME280;49026;52.600;4.694;2024-02-26T01:36:43;100205.84;;;4.14;100.00
62725;BME280;49026;52.600;4.694;2024-02-26T01:39:12;100203.31;;;4.13;100.00
62725;BME280;49026;52.600;4.694;2024-02-26T01:41:38;100208.53;;;4.13;100.00
62725;BME280;49026;52.600;4.694;2024-02-26T01:44:04;100210.28;;;4.11;100.00
62725;BME280;49026;52.600;4.694;2024-02-26T01:46:30;100211.13;;;4.13;100.00
62725;BME280;49026;52.600;4.694;2024-02-26T01:48:57;100206.81;;;4.12;100.00
62725;BME280;49026;52.600;4.694;2024-02-26T01:51:23;100201.59;;;4.12;100.00
62725;BME280;49026;52.600;4.694;2024-02-26T01:53:48;100202.44;;;4.12;100.00
62725;BME280;49026;52.600;4.694;2024-02-26T01:56:14;100209.41;;;4.12;100.00
62725;BME280;49026;52.600;4.694;2024-02-26T01:58:42;100211.97;;;4.13;100.00
62725;BME280;49026;52.600;4.694;2024-02-26T02:01:08;100219.81;;;4.12;100.00
62725;BME280;49026;52.600;4.694;2024-02-26T02:03:35;100217.31;;;4.07;100.00
62725;BME280;49026;52.600;4.694;2024-02-26T02:06:02;100199.94;;;4.07;100.00
62725;BME280;49026;52.600;4.694;2024-02-26T02:08:27;100206.91;;;4.07;100.00
62725;BME280;49026;52.600;4.694;2024-02-26T02:10:55;100218.22;;;4.06;100.00
62725;BME280;49026;52.600;4.694;2024-02-26T02:13:21;100218.31;;;4.01;100.00
62725;BME280;49026;52.600;4.694;2024-02-26T02:15:46;100210.66;;;3.95;100.00
62725;BME280;49026;52.600;4.694;2024-02-26T02:18:15;100212.44;;;3.93;100.00
62725;BME280;49026;52.600;4.694;2024-02-26T02:20:40;100213.34;;;3.90;100.00
62725;BME280;49026;52.600;4.694;2024-02-26T02:23:07;100219.47;;;3.88;100.00
62725;BME280;49026;52.600;4.694;2024-02-26T02:25:33;100207.38;;;3.87;100.00
62725;BME280;49026;52.600;4.694;2024-02-26T02:27:58;100229.94;;;3.85;100.00
62725;BME280;49026;52.600;4.694;2024-02-26T02:30:25;100223.03;;;3.84;100.00
62725;BME280;49026;52.600;4.694;2024-02-26T02:32:51;100235.19;;;3.82;100.00
62725;BME280;49026;52.600;4.694;2024-02-26T02:35:17;100241.28;;;3.81;100.00
62725;BME280;49026;52.600;4.694;2024-02-26T02:37:42;100251.66;;;3.81;100.00
62725;BME280;49026;52.600;4.694;2024-02-26T02:40:08;100243.88;;;3.81;100.00
62725;BME280;49026;52.600;4.694;2024-02-26T02:42:33;100247.38;;;3.80;100.00
62725;BME280;49026;52.600;4.694;2024-02-26T02:45:01;100254.38;;;3.78;100.00
62725;BME280;49026;52.600;4.694;2024-02-26T02:47:26;100260.44;;;3.77;100.00
62725;BME280;49026;52.600;4.694;2024-02-26T02:49:54;100266.50;;;3.76;100.00
62725;BME280;49026;52.600;4.694;2024-02-26T02:52:19;100267.38;;;3.76;100.00
62725;BME280;49026;52.600;4.694;2024-02-26T02:54:44;100261.31;;;3.76;100.00
62725;BME280;49026;52.600;4.694;2024-02-26T02:57:14;100259.56;;;3.78;100.00
62725;BME280;49026;52.600;4.694;2024-02-26T02:59:39;100269.09;;;3.76;100.00
62725;BME280;49026;52.600;4.694;2024-02-26T03:02:05;100258.81;;;3.73;100.00
62725;BME280;49026;52.600;4.694;2024-02-26T03:04:31;100267.44;;;3.73;100.00
62725;BME280;49026;52.600;4.694;2024-02-26T03:06:59;100258.84;;;3.71;100.00
62725;BME280;49026;52.600;4.694;2024-02-26T03:09:27;100270.09;;;3.70;100.00
62725;BME280;49026;52.600;4.694;2024-02-26T03:11:52;100273.59;;;3.69;100.00
62725;BME280;49026;52.600;4.694;2024-02-26T03:14:18;100277.97;;;3.67;100.00
62725;BME280;49026;52.600;4.694;2024-02-26T03:16:43;100273.59;;;3.67;100.00
62725;BME280;49026;52.600;4.694;2024-02-26T03:19:08;100285.75;;;3.67;100.00
62725;BME280;49026;52.600;4.694;2024-02-26T03:21:36;100287.56;;;3.63;100.00
62725;BME280;49026;52.600;4.694;2024-02-26T03:24:01;100282.38;;;3.63;100.00
62725;BME280;49026;52.600;4.694;2024-02-26T03:26:27;100278.13;;;3.59;100.00
62725;BME280;49026;52.600;4.694;2024-02-26T03:28:52;100286.72;;;3.63;100.00
62725;BME280;49026;52.600;4.694;2024-02-26T03:31:18;100301.38;;;3.65;100.00
62725;BME280;49026;52.600;4.694;2024-02-26T03:33:45;100294.50;;;3.63;100.00
62725;BME280;49026;52.600;4.694;2024-02-26T03:36:10;100306.63;;;3.62;100.00
62725;BME280;49026;52.600;4.694;2024-02-26T03:38:37;100306.63;;;3.62;100.00
62725;BME280;49026;52.600;4.694;2024-02-26T03:41:02;100309.25;;;3.61;100.00
62725;BME280;49026;52.600;4.694;2024-02-26T03:43:29;100316.16;;;3.63;100.00
62725;BME280;49026;52.600;4.694;2024-02-26T03:45:55;100317.91;;;3.63;100.00
62725;BME280;49026;52.600;4.694;2024-02-26T03:48:22;100315.31;;;3.61;100.00
62725;BME280;49026;52.600;4.694;2024-02-26T03:50:47;100311.78;;;3.64;100.00
62725;BME280;49026;52.600;4.694;2024-02-26T03:53:13;100320.47;;;3.64;100.00
62725;BME280;49026;52.600;4.694;2024-02-26T03:55:38;100326.59;;;3.60;100.00
62725;BME280;49026;52.600;4.694;2024-02-26T03:58:04;100325.72;;;3.61;100.00
62725;BME280;49026;52.600;4.694;2024-02-26T04:00:29;100328.25;;;3.64;100.00
62725;BME280;49026;52.600;4.694;2024-02-26T04:02:55;100338.56;;;3.67;100.00
62725;BME280;49026;52.600;4.694;2024-02-26T04:05:20;100335.09;;;3.68;100.00
62725;BME280;49026;52.600;4.694;2024-02-26T04:07:45;100328.09;;;3.72;100.00
62725;BME280;49026;52.600;4.694;2024-02-26T04:10:11;100332.38;;;3.75;100.00
62725;BME280;49026;52.600;4.694;2024-02-26T04:12:41;100327.19;;;3.75;100.00
62725;BME280;49026;52.600;4.694;2024-02-26T04:15:09;100331.47;;;3.76;100.00
62725;BME280;49026;52.600;4.694;2024-02-26T04:17:34;100334.06;;;3.76;100.00
62725;BME280;49026;52.600;4.694;2024-02-26T04:20:00;100341.91;;;3.74;100.00
62725;BME280;49026;52.600;4.694;2024-02-26T04:22:25;100354.88;;;3.76;100.00
62725;BME280;49026;52.600;4.694;2024-02-26T04:24:50;100345.41;;;3.73;100.00
62725;BME280;49026;52.600;4.694;2024-02-26T04:27:18;100348.84;;;3.74;100.00
62725;BME280;49026;52.600;4.694;2024-02-26T04:29:43;100339.41;;;3.69;100.00
62725;BME280;49026;52.600;4.694;2024-02-26T04:32:09;100352.41;;;3.69;100.00
62725;BME280;49026;52.600;4.694;2024-02-26T04:34:34;100350.66;;;3.70;100.00
62725;BME280;49026;52.600;4.694;2024-02-26T04:36:59;100348.97;;;3.67;100.00
62725;BME280;49026;52.600;4.694;2024-02-26T04:39:24;100349.88;;;3.66;100.00
62725;BME280;49026;52.600;4.694;2024-02-26T04:41:51;100359.41;;;3.66;100.00
62725;BME280;49026;52.600;4.694;2024-02-26T04:44:16;100366.34;;;3.65;100.00
62725;BME280;49026;52.600;4.694;2024-02-26T04:46:41;100360.34;;;3.62;100.00
62725;BME280;49026;52.600;4.694;2024-02-26T04:49:06;100362.09;;;3.61;100.00
62725;BME280;49026;52.600;4.694;2024-02-26T04:51:34;100373.34;;;3.60;100.00
62725;BME280;49026;52.600;4.694;2024-02-26T04:53:59;100369.06;;;3.59;100.00
62725;BME280;49026;52.600;4.694;2024-02-26T04:56:24;100370.75;;;3.60;100.00
62725;BME280;49026;52.600;4.694;2024-02-26T04:58:50;100364.69;;;3.61;100.00
62725;BME280;49026;52.600;4.694;2024-02-26T05:01:19;100374.28;;;3.59;100.00
62725;BME280;49026;52.600;4.694;2024-02-26T05:03:44;100384.69;;;3.58;100.00
62725;BME280;49026;52.600;4.694;2024-02-26T05:06:09;100384.69;;;3.58;100.00
62725;BME280;49026;52.600;4.694;2024-02-26T05:08:37;100388.97;;;3.59;100.00
62725;BME280;49026;52.600;4.694;2024-02-26T05:11:06;100376.88;;;3.59;100.00
62725;BME280;49026;52.600;4.694;2024-02-26T05:13:32;100399.31;;;3.62;100.00
62725;BME280;49026;52.600;4.694;2024-02-26T05:15:57;100408.88;;;3.61;100.00
62725;BME280;49026;52.600;4.694;2024-02-26T05:18:22;100400.16;;;3.62;100.00
62725;BME280;49026;52.600;4.694;2024-02-26T05:20:48;100407.09;;;3.63;100.00
62725;BME280;49026;52.600;4.694;2024-02-26T05:23:13;100414.00;;;3.64;100.00
62725;BME280;49026;52.600;4.694;2024-02-26T05:25:38;100407.97;;;3.61;100.00
62725;BME280;49026;52.600;4.694;2024-02-26T05:28:04;100396.66;;;3.66;100.00
62725;BME280;49026;52.600;4.694;2024-02-26T05:30:29;100419.22;;;3.64;100.00
62725;BME280;49026;52.600;4.694;2024-02-26T05:32:54;100413.09;;;3.65;100.00
62725;BME280;49026;52.600;4.694;2024-02-26T05:35:20;100420.06;;;3.63;100.00
62725;BME280;49026;52.600;4.694;2024-02-26T05:37:45;100414.03;;;3.63;100.00
62725;BME280;49026;52.600;4.694;2024-02-26T05:40:11;100426.16;;;3.62;100.00
62725;BME280;49026;52.600;4.694;2024-02-26T05:42:36;100419.22;;;3.63;100.00
62725;BME280;49026;52.600;4.694;2024-02-26T05:45:02;100426.97;;;3.66;100.00
62725;BME280;49026;52.600;4.694;2024-02-26T05:47:34;100434.81;;;3.63;100.00
62725;BME280;49026;52.600;4.694;2024-02-26T05:50:00;100435.66;;;3.65;100.00
62725;BME280;49026;52.600;4.694;2024-02-26T05:52:27;100444.28;;;3.65;100.00
62725;BME280;49026;52.600;4.694;2024-02-26T05:54:55;100441.69;;;3.65;100.00
62725;BME280;49026;52.600;4.694;2024-02-26T05:57:20;100446.94;;;3.62;100.00
62725;BME280;49026;52.600;4.694;2024-02-26T05:59:46;100446.88;;;3.65;100.00
62725;BME280;49026;52.600;4.694;2024-02-26T06:02:11;100456.41;;;3.66;100.00
62725;BME280;49026;52.600;4.694;2024-02-26T06:04:39;100458.97;;;3.68;100.00
62725;BME280;49026;52.600;4.694;2024-02-26T06:07:04;100465.06;;;3.67;100.00
62725;BME280;49026;52.600;4.694;2024-02-26T06:09:30;100462.44;;;3.68;100.00
62725;BME280;49026;52.600;4.694;2024-02-26T06:11:55;100471.97;;;3.68;100.00
62725;BME280;49026;52.600;4.694;2024-02-26T06:14:20;100479.75;;;3.69;100.00
62725;BME280;49026;52.600;4.694;2024-02-26T06:16:46;100467.63;;;3.68;100.00
62725;BME280;49026;52.600;4.694;2024-02-26T06:19:12;100471.03;;;3.70;100.00
62725;BME280;49026;52.600;4.694;2024-02-26T06:21:39;100479.75;;;3.69;100.00
62725;BME280;49026;52.600;4.694;2024-02-26T06:24:07;100474.59;;;3.66;100.00
62725;BME280;49026;52.600;4.694;2024-02-26T06:26:37;100487.53;;;3.71;100.00
62725;BME280;49026;52.600;4.694;2024-02-26T06:29:03;100492.69;;;3.73;100.00
62725;BME280;49026;52.600;4.694;2024-02-26T06:31:28;100500.50;;;3.73;100.00
62725;BME280;49026;52.600;4.694;2024-02-26T06:33:54;100484.00;;;3.74;100.00
62725;BME280;49026;52.600;4.694;2024-02-26T06:36:20;100507.34;;;3.77;100.00
62725;BME280;49026;52.600;4.694;2024-02-26T06:38:45;100512.53;;;3.77;100.00
62725;BME280;49026;52.600;4.694;2024-02-26T06:41:11;100517.72;;;3.77;100.00
62725;BME280;49026;52.600;4.694;2024-02-26T06:43:36;100515.06;;;3.80;100.00
62725;BME280;49026;52.600;4.694;2024-02-26T06:46:02;100510.69;;;3.82;100.00
62725;BME280;49026;52.600;4.694;2024-02-26T06:48:27;100489.06;;;3.81;100.00
62725;BME280;49026;52.600;4.694;2024-02-26T06:50:52;100520.25;;;3.81;100.00
62725;BME280;49026;52.600;4.694;2024-02-26T06:53:17;100509.81;;;3.84;100.00
62725;BME280;49026;52.600;4.694;2024-02-26T06:55:43;100534.91;;;3.85;100.00
62725;BME280;49026;52.600;4.694;2024-02-26T06:58:11;100507.22;;;3.84;100.00
62725;BME280;49026;52.600;4.694;2024-02-26T07:00:36;100520.19;;;3.86;100.00
62725;BME280;49026;52.600;4.694;2024-02-26T07:03:01;100533.19;;;3.86;100.00
62725;BME280;49026;52.600;4.694;2024-02-26T07:05:29;100537.47;;;3.87;100.00
62725;BME280;49026;52.600;4.694;2024-02-26T07:07:54;100534.88;;;3.87;100.00
62725;BME280;49026;52.600;4.694;2024-02-26T07:10:22;100540.91;;;3.89;100.00
62725;BME280;49026;52.600;4.694;2024-02-26T07:12:47;100556.47;;;3.90;100.00
62725;BME280;49026;52.600;4.694;2024-02-26T07:15:13;100557.41;;;3.88;100.00
62725;BME280;49026;52.600;4.694;2024-02-26T07:17:38;100567.75;;;3.91;100.00
62725;BME280;49026;52.600;4.694;2024-02-26T07:20:09;100567.75;;;3.91;100.00
62725;BME280;49026;52.600;4.694;2024-02-26T07:22:35;100566.88;;;3.90;100.00
62725;BME280;49026;52.600;4.694;2024-02-26T07:25:00;100569.44;;;3.92;100.00
62725;BME280;49026;52.600;4.694;2024-02-26T07:27:25;100557.34;;;3.91;100.00
62725;BME280;49026;52.600;4.694;2024-02-26T07:29:53;100518.28;;;3.94;100.00
62725;BME280;49026;52.600;4.694;2024-02-26T07:32:18;100564.16;;;3.97;100.00
62725;BME280;49026;52.600;4.694;2024-02-26T07:34:43;100521.72;;;3.96;100.00
62725;BME280;49026;52.600;4.694;2024-02-26T07:37:12;100569.34;;;3.98;99.69
62725;BME280;49026;52.600;4.694;2024-02-26T07:39:37;100584.88;;;4.03;100.00
62725;BME280;49026;52.600;4.694;2024-02-26T07:42:03;100592.66;;;4.04;99.74
62725;BME280;49026;52.600;4.694;2024-02-26T07:44:28;100603.88;;;4.06;99.29
62725;BME280;49026;52.600;4.694;2024-02-26T07:46:54;100598.63;;;4.10;100.00
62725;BME280;49026;52.600;4.694;2024-02-26T07:49:19;100584.78;;;4.07;99.28
62725;BME280;49026;52.600;4.694;2024-02-26T07:51:45;100605.53;;;4.11;98.51
62725;BME280;49026;52.600;4.694;2024-02-26T07:54:10;100591.63;;;4.13;98.30
62725;BME280;49026;52.600;4.694;2024-02-26T07:56:35;100578.56;;;4.16;99.35
62725;BME280;49026;52.600;4.694;2024-02-26T07:59:03;100600.22;;;4.17;99.06
62725;BME280;49026;52.600;4.694;2024-02-26T08:01:28;100620.13;;;4.19;98.40
62725;BME280;49026;52.600;4.694;2024-02-26T08:03:53;100615.78;;;4.20;98.36
62725;BME280;49026;52.600;4.694;2024-02-26T08:06:19;100641.75;;;4.23;98.23
62725;BME280;49026;52.600;4.694;2024-02-26T08:08:46;100633.91;;;4.24;98.89
62725;BME280;49026;52.600;4.694;2024-02-26T08:11:14;100635.63;;;4.25;99.21
62725;BME280;49026;52.600;4.694;2024-02-26T08:13:40;100639.13;;;4.24;98.29
62725;BME280;49026;52.600;4.694;2024-02-26T08:16:05;100639.97;;;4.25;98.01
62725;BME280;49026;52.600;4.694;2024-02-26T08:18:33;100650.38;;;4.25;97.88
62725;BME280;49026;52.600;4.694;2024-02-26T08:20:58;100646.00;;;4.27;98.26
62725;BME280;49026;52.600;4.694;2024-02-26T08:23:23;100644.31;;;4.26;97.54
62725;BME280;49026;52.600;4.694;2024-02-26T08:25:51;100649.53;;;4.24;97.17
62725;BME280;49026;52.600;4.694;2024-02-26T08:28:16;100652.94;;;4.26;97.46
62725;BME280;49026;52.600;4.694;2024-02-26T08:30:45;100644.31;;;4.24;97.06
62725;BME280;49026;52.600;4.694;2024-02-26T08:33:10;100643.41;;;4.27;98.45
62725;BME280;49026;52.600;4.694;2024-02-26T08:35:36;100635.63;;;4.24;97.08
62725;BME280;49026;52.600;4.694;2024-02-26T08:38:02;100645.22;;;4.22;97.29
62725;BME280;49026;52.600;4.694;2024-02-26T08:40:30;100646.06;;;4.22;97.33
62725;BME280;49026;52.600;4.694;2024-02-26T08:42:55;100656.44;;;4.24;97.64
62725;BME280;49026;52.600;4.694;2024-02-26T08:45:21;100652.09;;;4.26;97.36
62725;BME280;49026;52.600;4.694;2024-02-26T08:47:46;100654.66;;;4.27;97.62
62725;BME280;49026;52.600;4.694;2024-02-26T08:50:14;100652.91;;;4.30;97.10
62725;BME280;49026;52.600;4.694;2024-02-26T08:52:39;100660.72;;;4.28;95.82
62725;BME280;49026;52.600;4.694;2024-02-26T08:55:06;100669.34;;;4.30;95.69
62725;BME280;49026;52.600;4.694;2024-02-26T08:57:33;100672.78;;;4.32;95.81
62725;BME280;49026;52.600;4.694;2024-02-26T08:59:59;100678.88;;;4.33;95.63
62725;BME280;49026;52.600;4.694;2024-02-26T09:02:25;100668.41;;;4.34;94.29
62725;BME280;49026;52.600;4.694;2024-02-26T09:04:50;100677.09;;;4.35;93.52
62725;BME280;49026;52.600;4.694;2024-02-26T09:07:20;100689.16;;;4.39;93.99
62725;BME280;49026;52.600;4.694;2024-02-26T09:09:46;100696.94;;;4.40;93.76
62725;BME280;49026;52.600;4.694;2024-02-26T09:12:13;100700.34;;;4.42;94.42
62725;BME280;49026;52.600;4.694;2024-02-26T09:14:39;100689.94;;;4.42;93.28
62725;BME280;49026;52.600;4.694;2024-02-26T09:17:04;100719.44;;;4.44;94.33
62725;BME280;49026;52.600;4.694;2024-02-26T09:19:31;100698.63;;;4.44;94.16
62725;BME280;49026;52.600;4.694;2024-02-26T09:21:56;100721.13;;;4.45;94.57
62725;BME280;49026;52.600;4.694;2024-02-26T09:24:23;100722.81;;;4.50;96.52
62725;BME280;49026;52.600;4.694;2024-02-26T09:26:53;100728.84;;;4.52;96.01
62725;BME280;49026;52.600;4.694;2024-02-26T09:29:19;100737.44;;;4.55;96.57
62725;BME280;49026;52.600;4.694;2024-02-26T09:31:46;100733.88;;;4.61;96.10
62725;BME280;49026;52.600;4.694;2024-02-26T09:34:14;100736.38;;;4.67;96.84
62725;BME280;49026;52.600;4.694;2024-02-26T09:36:42;100739.81;;;4.68;96.24
62725;BME280;49026;52.600;4.694;2024-02-26T09:39:08;100741.53;;;4.70;95.38
62725;BME280;49026;52.600;4.694;2024-02-26T09:41:38;100731.13;;;4.70;95.83
62725;BME280;49026;52.600;4.694;2024-02-26T09:44:04;100738.97;;;4.69;94.57
62725;BME280;49026;52.600;4.694;2024-02-26T09:46:32;100739.75;;;4.72;95.21
62725;BME280;49026;52.600;4.694;2024-02-26T09:49:00;100742.34;;;4.74;93.68
62725;BME280;49026;52.600;4.694;2024-02-26T09:51:28;100748.34;;;4.77;94.50
62725;BME280;49026;52.600;4.694;2024-02-26T09:53:54;100751.72;;;4.82;94.73
62725;BME280;49026;52.600;4.694;2024-02-26T09:56:21;100761.22;;;4.87;94.73
62725;BME280;49026;52.600;4.694;2024-02-26T09:58:49;100767.13;;;4.95;97.11
62725;BME280;49026;52.600;4.694;2024-02-26T10:01:19;100763.59;;;4.97;91.92
62725;BME280;49026;52.600;4.694;2024-02-26T10:03:54;100773.03;;;5.06;92.50
62725;BME280;49026;52.600;4.694;2024-02-26T10:06:20;100765.06;;;5.12;92.09
62725;BME280;49026;52.600;4.694;2024-02-26T10:08:51;100763.13;;;5.24;92.09
62725;BME280;49026;52.600;4.694;2024-02-26T10:11:18;100782.97;;;5.31;92.05
62725;BME280;49026;52.600;4.694;2024-02-26T10:13:43;100792.31;;;5.41;91.59
62725;BME280;49026;52.600;4.694;2024-02-26T10:16:11;100795.69;;;5.46;89.96
62725;BME280;49026;52.600;4.694;2024-02-26T10:18:48;100782.53;;;5.52;90.81
62725;BME280;49026;52.600;4.694;2024-02-26T10:21:18;100794.50;;;5.61;91.94
62725;BME280;49026;52.600;4.694;2024-02-26T10:23:44;100796.19;;;5.65;88.67
62725;BME280;49026;52.600;4.694;2024-02-26T10:26:11;100794.25;;;5.75;89.44
62725;BME280;49026;52.600;4.694;2024-02-26T10:28:41;100788.75;;;5.87;88.12
62725;BME280;49026;52.600;4.694;2024-02-26T10:31:08;100819.88;;;5.98;90.67
62725;BME280;49026;52.600;4.694;2024-02-26T10:33:35;100824.03;;;6.07;86.99
62725;BME280;49026;52.600;4.694;2024-02-26T10:36:02;100835.19;;;6.14;86.32
62725;BME280;49026;52.600;4.694;2024-02-26T10:38:27;100830.63;;;6.23;88.67
62725;BME280;49026;52.600;4.694;2024-02-26T10:40:55;100826.16;;;6.30;88.50
62725;BME280;49026;52.600;4.694;2024-02-26T10:43:24;100827.84;;;6.31;86.07
62725;BME280;49026;52.600;4.694;2024-02-26T10:45:50;100832.16;;;6.34;85.00
62725;BME280;49026;52.600;4.694;2024-02-26T10:48:15;100832.75;;;6.45;88.21
62725;BME280;49026;52.600;4.694;2024-02-26T10:50:42;100838.63;;;6.53;86.27
62725;BME280;49026;52.600;4.694;2024-02-26T10:53:14;100836.91;;;6.54;87.37
62725;BME280;49026;52.600;4.694;2024-02-26T10:55:42;100830.09;;;6.46;86.01
62725;BME280;49026;52.600;4.694;2024-02-26T10:58:12;100849.38;;;6.41;85.99
62725;BME280;49026;52.600;4.694;2024-02-26T11:00:38;100858.03;;;6.43;86.08
62725;BME280;49026;52.600;4.694;2024-02-26T11:03:07;100851.91;;;6.44;87.44
62725;BME280;49026;52.600;4.694;2024-02-26T11:05:35;100848.59;;;6.37;85.28
62725;BME280;49026;52.600;4.694;2024-02-26T11:08:02;100865.09;;;6.38;82.78
62725;BME280;49026;52.600;4.694;2024-02-26T11:10:29;100858.19;;;6.37;83.76
62725;BME280;49026;52.600;4.694;2024-02-26T11:12:56;100863.31;;;6.40;83.42
62725;BME280;49026;52.600;4.694;2024-02-26T11:15:24;100864.09;;;6.45;84.52
62725;BME280;49026;52.600;4.694;2024-02-26T11:17:53;100865.66;;;6.52;86.59
62725;BME280;49026;52.600;4.694;2024-02-26T11:20:20;100864.84;;;6.50;84.26
62725;BME280;49026;52.600;4.694;2024-02-26T11:22:45;100876.19;;;6.47;83.03
62725;BME280;49026;52.600;4.694;2024-02-26T11:25:14;100863.19;;;6.46;84.27
62725;BME280;49026;52.600;4.694;2024-02-26T11:27:49;100868.53;;;6.40;83.55
62725;BME280;49026;52.600;4.694;2024-02-26T11:30:16;100873.00;;;6.35;84.72
62725;BME280;49026;52.600;4.694;2024-02-26T11:32:48;100873.03;;;6.33;83.83
62725;BME280;49026;52.600;4.694;2024-02-26T11:35:14;100863.50;;;6.32;84.09
62725;BME280;49026;52.600;4.694;2024-02-26T11:37:56;100882.69;;;6.29;85.24
62725;BME280;49026;52.600;4.694;2024-02-26T11:40:26;100873.25;;;6.24;85.09
62725;BME280;49026;52.600;4.694;2024-02-26T11:42:53;100884.53;;;6.24;86.06
62725;BME280;49026;52.600;4.694;2024-02-26T11:48:03;100865.16;;;6.35;83.44
62725;BME280;49026;52.600;4.694;2024-02-26T11:50:42;100879.06;;;6.37;83.31
62725;BME280;49026;52.600;4.694;2024-02-26T11:53:29;100889.50;;;6.37;82.72
62725;BME280;49026;52.600;4.694;2024-02-26T11:59:02;100896.41;;;6.38;85.49
62725;BME280;49026;52.600;4.694;2024-02-26T12:01:40;100894.91;;;6.27;84.53
62725;BME280;49026;52.600;4.694;2024-02-26T12:04:07;100887.16;;;6.23;82.98
62725;BME280;49026;52.600;4.694;2024-02-26T12:06:44;100893.25;;;6.23;81.07
62725;BME280;49026;52.600;4.694;2024-02-26T12:09:10;100909.69;;;6.28;81.89
62725;BME280;49026;52.600;4.694;2024-02-26T12:11:40;100890.56;;;6.26;82.42
62725;BME280;49026;52.600;4.694;2024-02-26T12:14:07;100884.53;;;6.24;82.57
62725;BME280;49026;52.600;4.694;2024-02-26T12:16:41;100921.97;;;6.23;83.75
62725;BME280;49026;52.600;4.694;2024-02-26T12:19:10;100909.72;;;6.27;84.12
62725;BME280;49026;52.600;4.694;2024-02-26T12:21:36;100891.41;;;6.28;81.34
62725;BME280;49026;52.600;4.694;2024-02-26T12:24:13;100912.28;;;6.28;82.34
62725;BME280;49026;52.600;4.694;2024-02-26T12:26:39;100914.94;;;6.27;83.44
62725;BME280;49026;52.600;4.694;2024-02-26T12:29:06;100928.06;;;6.22;83.14
62725;BME280;49026;52.600;4.694;2024-02-26T12:31:32;100937.66;;;6.22;83.18
62725;BME280;49026;52.600;4.694;2024-02-26T12:33:58;100939.41;;;6.20;84.25
62725;BME280;49026;52.600;4.694;2024-02-26T12:36:24;100948.22;;;6.16;83.34
62725;BME280;49026;52.600;4.694;2024-02-26T12:38:55;100936.03;;;6.15;84.44
62725;BME280;49026;52.600;4.694;2024-02-26T12:41:21;100944.81;;;6.12;80.88
62725;BME280;49026;52.600;4.694;2024-02-26T12:43:47;100933.38;;;6.18;84.34
62725;BME280;49026;52.600;4.694;2024-02-26T12:46:13;100936.88;;;6.18;85.33
62725;BME280;49026;52.600;4.694;2024-02-26T12:48:42;100957.78;;;6.17;84.34
62725;BME280;49026;52.600;4.694;2024-02-26T12:51:08;100950.00;;;6.14;83.66
62725;BME280;49026;52.600;4.694;2024-02-26T12:53:35;100955.19;;;6.15;83.80
62725;BME280;49026;52.600;4.694;2024-02-26T12:56:00;100952.56;;;6.17;85.32
62725;BME280;49026;52.600;4.694;2024-02-26T12:58:26;100957.75;;;6.18;83.69